Time,TemperatureF,DewpointF,PressureIn,WindDirection,WindDirectionDegrees,WindSpeedMPH,WindSpeedGustMPH,Humidity,HourlyPrecipIn,Conditions,Clouds,dailyrainin,SolarRadiationWatts/m^2,SoftwareType,DateUTC
2013-01-31 00:05:00,25.1,22.3,30.41,SW,216,0.0,5.0,89,0.00,,,0.00,0,Wunderground v.1.15,2013-01-31 07:05:00,
2013-01-31 00:15:00,24.8,22.0,30.41,SW,216,0.0,0.0,89,0.00,,,0.00,0,Wunderground v.1.15,2013-01-31 07:15:00,
2013-01-31 00:20:00,24.7,21.9,30.41,SW,216,0.0,0.0,89,0.00,,,0.00,0,Wunderground v.1.15,2013-01-31 07:20:00,
2013-01-31 00:30:00,24.9,22.4,30.41,SW,216,0.0,0.0,90,0.00,,,0.01,0,Wunderground v.1.15,2013-01-31 07:30:00,
2013-01-31 00:40:00,24.8,22.0,30.40,SW,216,0.0,0.0,89,0.00,,,0.01,0,Wunderground v.1.15,2013-01-31 07:40:00,
2013-01-31 00:50:00,24.9,22.4,30.41,SW,216,0.0,0.0,90,0.00,,,0.01,0,Wunderground v.1.15,2013-01-31 07:50:00,
2013-01-31 01:00:00,25.0,22.5,30.41,SW,216,0.0,0.0,90,0.00,,,0.02,0,Wunderground v.1.15,2013-01-31 08:00:00,
2013-01-31 01:10:00,24.9,22.4,30.41,SW,216,0.0,1.0,90,0.04,,,0.03,0,Wunderground v.1.15,2013-01-31 08:10:00,
2013-01-31 01:20:00,25.0,22.5,30.41,SW,216,0.0,1.0,90,0.04,,,0.03,0,Wunderground v.1.15,2013-01-31 08:20:00,
2013-01-31 01:30:00,25.0,22.5,30.41,SW,216,0.0,1.0,90,0.04,,,0.04,0,Wunderground v.1.15,2013-01-31 08:30:00,
2013-01-31 01:35:00,25.1,22.6,30.41,SW,216,0.0,1.0,90,0.04,,,0.04,0,Wunderground v.1.15,2013-01-31 08:35:00,
2013-01-31 01:45:00,25.0,22.5,30.41,SW,216,0.0,1.0,90,0.04,,,0.05,0,Wunderground v.1.15,2013-01-31 08:45:00,
2013-01-31 01:55:00,24.9,22.4,30.41,SW,216,0.0,1.0,90,0.04,,,0.05,0,Wunderground v.1.15,2013-01-31 08:55:00,
2013-01-31 02:05:00,25.1,22.8,30.41,SW,216,0.0,1.0,91,0.00,,,0.05,0,Wunderground v.1.15,2013-01-31 09:05:00,
2013-01-31 02:15:00,24.9,22.6,30.41,SW,216,0.0,1.0,91,0.00,,,0.06,0,Wunderground v.1.15,2013-01-31 09:15:00,
2013-01-31 02:25:00,24.9,22.6,30.41,SW,216,0.0,1.0,91,0.00,,,0.06,0,Wunderground v.1.15,2013-01-31 09:25:00,
2013-01-31 02:35:00,24.8,22.5,30.41,SW,216,0.0,1.0,91,0.00,,,0.07,0,Wunderground v.1.15,2013-01-31 09:35:00,
2013-01-31 02:45:00,25.3,23.0,30.41,SW,216,0.0,1.0,91,0.00,,,0.07,0,Wunderground v.1.15,2013-01-31 09:45:00,
2013-01-31 02:55:00,25.2,22.9,30.41,SW,216,0.0,1.0,91,0.00,,,0.07,0,Wunderground v.1.15,2013-01-31 09:55:00,
2013-01-31 03:00:00,25.4,23.1,30.41,SW,216,0.0,2.0,91,0.00,,,0.07,0,Wunderground v.1.15,2013-01-31 10:00:00,
2013-01-31 03:05:00,25.3,23.0,30.41,SW,216,1.0,2.0,91,0.00,,,0.07,0,Wunderground v.1.15,2013-01-31 10:05:00,
2013-01-31 03:15:00,25.3,23.0,30.41,SW,216,1.0,1.0,91,0.00,,,0.07,0,Wunderground v.1.15,2013-01-31 10:15:00,
2013-01-31 03:20:00,25.4,23.1,30.42,SW,216,1.0,3.0,91,0.00,,,0.07,0,Wunderground v.1.15,2013-01-31 10:20:00,
2013-01-31 03:30:00,25.8,23.5,30.41,SW,216,1.0,1.0,91,0.00,,,0.07,0,Wunderground v.1.15,2013-01-31 10:30:00,
2013-01-31 03:35:00,26.0,24.0,30.40,SW,216,1.0,1.0,92,0.00,,,0.07,0,Wunderground v.1.15,2013-01-31 10:35:00,
2013-01-31 03:40:00,25.8,23.5,30.40,SW,216,2.0,5.0,91,0.00,,,0.07,0,Wunderground v.1.15,2013-01-31 10:40:00,
2013-01-31 03:45:00,25.4,23.1,30.40,SW,216,2.0,5.0,91,0.00,,,0.07,0,Wunderground v.1.15,2013-01-31 10:45:00,
2013-01-31 03:55:00,24.9,22.6,30.41,SW,216,1.0,1.0,91,0.00,,,0.07,0,Wunderground v.1.15,2013-01-31 10:55:00,
2013-01-31 04:00:00,24.9,22.6,30.41,SW,215,1.0,1.0,91,0.00,,,0.07,0,Wunderground v.1.15,2013-01-31 11:00:00,
2013-01-31 04:05:00,24.9,22.6,30.41,SW,216,1.0,4.0,91,0.00,,,0.07,0,Wunderground v.1.15,2013-01-31 11:05:00,
2013-01-31 04:10:00,25.0,22.7,30.41,SW,216,2.0,2.0,91,0.00,,,0.07,0,Wunderground v.1.15,2013-01-31 11:10:00,
2013-01-31 04:15:00,25.2,22.9,30.42,SW,216,2.0,3.0,91,0.00,,,0.07,0,Wunderground v.1.15,2013-01-31 11:15:00,
2013-01-31 04:25:00,25.2,22.7,30.42,SW,216,2.0,3.0,90,0.00,,,0.07,0,Wunderground v.1.15,2013-01-31 11:25:00,
2013-01-31 04:35:00,25.4,22.9,30.42,SW,216,1.0,3.0,90,0.00,,,0.07,0,Wunderground v.1.15,2013-01-31 11:35:00,
2013-01-31 04:40:00,25.6,23.1,30.42,SW,216,1.0,1.0,90,0.00,,,0.07,0,Wunderground v.1.15,2013-01-31 11:40:00,
2013-01-31 04:50:00,25.8,23.3,30.42,SW,216,0.0,3.0,90,0.00,,,0.07,0,Wunderground v.1.15,2013-01-31 11:50:00,
2013-01-31 05:00:00,25.7,22.9,30.43,SW,216,1.0,1.0,89,0.00,,,0.07,0,Wunderground v.1.15,2013-01-31 12:00:00,
2013-01-31 05:05:00,25.6,22.8,30.43,SW,216,0.0,3.0,89,0.00,,,0.07,0,Wunderground v.1.15,2013-01-31 12:05:00,
2013-01-31 05:15:00,25.6,22.8,30.43,SW,216,0.0,3.0,89,0.00,,,0.07,0,Wunderground v.1.15,2013-01-31 12:15:00,
2013-01-31 05:25:00,26.0,23.5,30.43,SW,216,1.0,3.0,90,0.00,,,0.07,0,Wunderground v.1.15,2013-01-31 12:25:00,
2013-01-31 05:35:00,26.0,23.2,30.42,SW,216,0.0,3.0,89,0.00,,,0.07,0,Wunderground v.1.15,2013-01-31 12:35:00,
2013-01-31 05:40:00,25.8,23.0,30.42,SW,216,0.0,3.0,89,0.00,,,0.07,0,Wunderground v.1.15,2013-01-31 12:40:00,
2013-01-31 05:50:00,25.5,22.7,30.42,SW,216,1.0,1.0,89,0.00,,,0.07,0,Wunderground v.1.15,2013-01-31 12:50:00,
2013-01-31 05:55:00,25.4,22.6,30.43,SW,216,0.0,2.0,89,0.00,,,0.07,0,Wunderground v.1.15,2013-01-31 12:55:00,
2013-01-31 06:05:00,25.3,22.5,30.43,SW,216,1.0,3.0,89,0.00,,,0.07,0,Wunderground v.1.15,2013-01-31 13:05:00,
2013-01-31 11:35:00,30.0,25.2,30.54,SW,216,1.0,1.0,82,0.00,,,0.00,202,Wunderground v.1.15,2013-01-31 18:35:00,
2013-01-31 13:40:00,37.4,28.2,30.45,SW,217,2.0,2.0,69,0.00,,,0.00,584,Wunderground v.1.15,2013-01-31 20:40:00,
2013-01-31 13:45:00,38.1,28.8,30.44,SSW,206,1.0,3.0,69,0.00,,,0.00,570,Wunderground v.1.15,2013-01-31 20:45:00,
2013-01-31 13:50:00,38.1,28.5,30.44,SSW,206,1.0,3.0,68,0.00,,,0.00,563,Wunderground v.1.15,2013-01-31 20:50:00,
2013-01-31 14:00:00,37.0,28.8,30.43,NE,48,2.0,2.0,72,0.00,,,0.00,526,Wunderground v.1.15,2013-01-31 21:00:00,
2013-01-31 14:10:00,37.0,29.1,30.42,NE,50,2.0,3.0,73,0.00,,,0.00,506,Wunderground v.1.15,2013-01-31 21:10:00,
2013-01-31 14:20:00,37.6,30.1,30.42,NE,51,2.0,2.0,74,0.00,,,0.00,487,Wunderground v.1.15,2013-01-31 21:20:00,
2013-01-31 14:25:00,38.6,28.9,30.42,NE,52,1.0,3.0,68,0.00,,,0.00,480,Wunderground v.1.15,2013-01-31 21:25:00,
2013-01-31 14:30:00,38.6,27.1,30.41,North,4,0.0,3.0,63,0.00,,,0.00,471,Wunderground v.1.15,2013-01-31 21:30:00,
2013-01-31 14:40:00,39.7,27.7,30.41,SW,223,0.0,3.0,62,0.00,,,0.00,431,Wunderground v.1.15,2013-01-31 21:40:00,
2013-01-31 14:50:00,39.7,28.5,30.41,West,265,1.0,3.0,64,0.00,,,0.00,431,Wunderground v.1.15,2013-01-31 21:50:00,
2013-01-31 15:00:00,39.4,27.8,30.40,WSW,258,1.0,1.0,63,0.00,,,0.00,415,Wunderground v.1.15,2013-01-31 22:00:00,
2013-01-31 15:05:00,39.5,27.9,30.40,WNW,287,1.0,3.0,63,0.00,,,0.00,410,Wunderground v.1.15,2013-01-31 22:05:00,
2013-01-31 15:15:00,40.4,28.8,30.40,NNW,336,0.0,1.0,63,0.00,,,0.00,459,Wunderground v.1.15,2013-01-31 22:15:00,
2013-01-31 15:20:00,39.5,26.3,30.40,NNW,332,1.0,1.0,59,0.00,,,0.00,311,Wunderground v.1.15,2013-01-31 22:20:00,
2013-01-31 15:30:00,39.7,26.9,30.40,NNE,33,0.0,0.0,60,0.00,,,0.00,443,Wunderground v.1.15,2013-01-31 22:30:00,
2013-01-31 15:40:00,39.4,26.2,30.39,WNW,284,1.0,1.0,59,0.00,,,0.00,322,Wunderground v.1.15,2013-01-31 22:40:00,
2013-01-31 15:45:00,40.0,26.8,30.39,SSE,147,1.0,2.0,59,0.00,,,0.00,313,Wunderground v.1.15,2013-01-31 22:45:00,
2013-01-31 15:50:00,40.5,27.7,30.39,South,185,0.0,1.0,60,0.00,,,0.00,137,Wunderground v.1.15,2013-01-31 22:50:00,
2013-01-31 15:55:00,39.9,27.9,30.39,South,184,0.0,1.0,62,0.00,,,0.00,123,Wunderground v.1.15,2013-01-31 22:55:00,
2013-01-31 16:05:00,38.7,26.8,30.39,South,190,0.0,1.0,62,0.00,,,0.00,125,Wunderground v.1.15,2013-01-31 23:05:00,
2013-01-31 16:15:00,38.4,27.7,30.39,East,89,0.0,3.0,65,0.00,,,0.00,97,Wunderground v.1.15,2013-01-31 23:15:00,
2013-01-31 16:25:00,37.8,27.8,30.39,WNW,290,1.0,3.0,67,0.00,,,0.00,72,Wunderground v.1.15,2013-01-31 23:25:00,
2013-01-31 16:35:00,37.5,28.6,30.40,WNW,300,0.0,3.0,70,0.00,,,0.00,58,Wunderground v.1.15,2013-01-31 23:35:00,
2013-01-31 16:40:00,37.3,28.1,30.40,East,95,0.0,3.0,69,0.00,,,0.00,51,Wunderground v.1.15,2013-01-31 23:40:00,
2013-01-31 16:50:00,37.0,28.1,30.40,SSW,201,1.0,1.0,70,0.00,,,0.00,35,Wunderground v.1.15,2013-01-31 23:50:00,
2013-01-31 17:00:00,36.9,28.4,30.41,SSW,197,1.0,1.0,71,0.00,,,0.00,25,Wunderground v.1.15,2013-02-01 00:00:00,
2013-01-31 17:05:00,36.9,28.4,30.41,SSW,198,1.0,3.0,71,0.00,,,0.00,21,Wunderground v.1.15,2013-02-01 00:05:00,
2013-01-31 17:15:00,36.6,27.7,30.41,SSW,198,0.0,3.0,70,0.00,,,0.00,16,Wunderground v.1.15,2013-02-01 00:15:00,
2013-01-31 17:25:00,36.0,27.2,30.41,SSW,198,0.0,3.0,70,0.00,,,0.00,12,Wunderground v.1.15,2013-02-01 00:25:00,
2013-01-31 17:35:00,35.6,27.1,30.41,SSW,198,0.0,3.0,71,0.00,,,0.00,7,Wunderground v.1.15,2013-02-01 00:35:00,
2013-01-31 17:45:00,35.4,27.6,30.41,South,183,0.0,3.0,73,0.00,,,0.00,0,Wunderground v.1.15,2013-02-01 00:45:00,
2013-01-31 17:55:00,34.7,27.6,30.41,South,183,0.0,3.0,75,0.00,,,0.00,0,Wunderground v.1.15,2013-02-01 00:55:00,
2013-01-31 18:00:00,34.6,27.8,30.42,SE,126,0.0,3.0,76,0.00,,,0.00,0,Wunderground v.1.15,2013-02-01 01:00:00,
2013-01-31 18:05:00,34.1,27.6,30.42,SE,126,0.0,3.0,77,0.00,,,0.00,0,Wunderground v.1.15,2013-02-01 01:05:00,
2013-01-31 18:15:00,33.4,27.9,30.42,ESE,123,0.0,0.0,80,0.00,,,0.00,0,Wunderground v.1.15,2013-02-01 01:15:00,
2013-01-31 18:25:00,32.8,27.3,30.42,ESE,123,0.0,0.0,80,0.00,,,0.00,0,Wunderground v.1.15,2013-02-01 01:25:00,
2013-01-31 18:35:00,32.6,27.7,30.42,ESE,123,0.0,0.0,82,0.00,,,0.00,0,Wunderground v.1.15,2013-02-01 01:35:00,
2013-01-31 18:45:00,32.3,27.7,30.42,ESE,123,0.0,0.0,83,0.00,,,0.00,0,Wunderground v.1.15,2013-02-01 01:45:00,
2013-01-31 18:55:00,32.0,27.7,30.43,ENE,72,1.0,3.0,84,0.00,,,0.00,0,Wunderground v.1.15,2013-02-01 01:55:00,
2013-01-31 19:05:00,31.5,27.5,30.43,NE,56,1.0,2.0,85,0.00,,,0.00,0,Wunderground v.1.15,2013-02-01 02:05:00,
2013-01-31 19:10:00,31.9,28.2,30.43,NE,56,1.0,2.0,86,0.00,,,0.00,0,Wunderground v.1.15,2013-02-01 02:10:00,
2013-01-31 19:15:00,31.7,28.0,30.43,NE,56,0.0,2.0,86,0.00,,,0.00,0,Wunderground v.1.15,2013-02-01 02:15:00,
2013-01-31 19:25:00,30.7,27.0,30.43,NE,53,2.0,2.0,86,0.00,,,0.00,0,Wunderground v.1.15,2013-02-01 02:25:00,
2013-01-31 19:35:00,30.4,27.0,30.43,ENE,61,4.0,4.0,87,0.00,,,0.00,0,Wunderground v.1.15,2013-02-01 02:35:00,
2013-01-31 19:45:00,30.6,27.2,30.43,NE,54,4.0,5.0,87,0.00,,,0.00,0,Wunderground v.1.15,2013-02-01 02:45:00,
2013-01-31 19:55:00,31.3,27.6,30.44,ENE,66,3.0,4.0,86,0.00,,,0.00,0,Wunderground v.1.15,2013-02-01 02:55:00,
2013-01-31 20:00:00,31.3,27.3,30.44,ENE,66,2.0,2.0,85,0.00,,,0.00,0,Wunderground v.1.15,2013-02-01 03:00:00,
2013-01-31 20:10:00,31.3,27.3,30.43,ENE,66,0.0,2.0,85,0.00,,,0.00,0,Wunderground v.1.15,2013-02-01 03:10:00,
2013-01-31 20:15:00,31.3,27.3,30.44,ENE,75,1.0,2.0,85,0.00,,,0.00,0,Wunderground v.1.15,2013-02-01 03:15:00,
2013-01-31 20:25:00,30.9,26.9,30.44,ENE,75,1.0,2.0,85,0.00,,,0.00,0,Wunderground v.1.15,2013-02-01 03:25:00,
2013-01-31 20:35:00,31.1,27.1,30.43,ENE,75,0.0,2.0,85,0.00,,,0.00,0,Wunderground v.1.15,2013-02-01 03:35:00,
2013-01-31 20:45:00,31.1,27.1,30.44,ENE,75,0.0,2.0,85,0.00,,,0.00,0,Wunderground v.1.15,2013-02-01 03:45:00,
2013-01-31 20:55:00,31.2,27.2,30.44,ENE,75,0.0,2.0,85,0.00,,,0.00,0,Wunderground v.1.15,2013-02-01 03:55:00,
2013-01-31 21:00:00,31.6,28.2,30.44,ENE,75,0.0,2.0,87,0.00,,,0.00,0,Wunderground v.1.15,2013-02-01 04:00:00,
2013-01-31 21:05:00,32.0,28.6,30.44,ENE,75,0.0,2.0,87,0.00,,,0.00,0,Wunderground v.1.15,2013-02-01 04:05:00,
2013-01-31 21:15:00,31.6,27.9,30.44,ENE,75,0.0,0.0,86,0.00,,,0.00,0,Wunderground v.1.15,2013-02-01 04:15:00,
2013-01-31 21:25:00,31.9,28.5,30.44,ENE,75,0.0,0.0,87,0.00,,,0.00,0,Wunderground v.1.15,2013-02-01 04:25:00,
2013-01-31 21:35:00,31.3,27.6,30.43,ENE,75,0.0,0.0,86,0.00,,,0.00,0,Wunderground v.1.15,2013-02-01 04:35:00,
2013-01-31 21:45:00,31.3,27.6,30.43,East,95,0.0,1.0,86,0.00,,,0.00,0,Wunderground v.1.15,2013-02-01 04:45:00,
2013-01-31 21:55:00,31.1,27.4,30.44,East,95,0.0,0.0,86,0.00,,,0.00,0,Wunderground v.1.15,2013-02-01 04:55:00,
2013-01-31 22:00:00,31.2,27.2,30.44,East,95,0.0,0.0,85,0.00,,,0.00,0,Wunderground v.1.15,2013-02-01 05:00:00,
2013-01-31 22:05:00,31.1,27.1,30.44,East,95,0.0,1.0,85,0.00,,,0.00,0,Wunderground v.1.15,2013-02-01 05:05:00,
2013-01-31 22:10:00,31.1,27.1,30.43,East,95,0.0,1.0,85,0.00,,,0.00,0,Wunderground v.1.15,2013-02-01 05:10:00,
2013-01-31 22:15:00,31.3,27.3,30.43,East,95,0.0,1.0,85,0.00,,,0.00,0,Wunderground v.1.15,2013-02-01 05:15:00,
2013-01-31 22:20:00,31.3,27.3,30.43,East,95,0.0,1.0,85,0.00,,,0.00,0,Wunderground v.1.15,2013-02-01 05:20:00,
2013-01-31 22:30:00,31.2,26.6,30.42,East,95,1.0,1.0,83,0.00,,,0.00,0,Wunderground v.1.15,2013-02-01 05:30:00,
2013-01-31 22:40:00,31.3,26.7,30.42,East,97,0.0,1.0,83,0.00,,,0.00,0,Wunderground v.1.15,2013-02-01 05:40:00,
2013-01-31 22:50:00,31.2,26.6,30.42,East,97,0.0,1.0,83,0.00,,,0.00,0,Wunderground v.1.15,2013-02-01 05:50:00,
2013-01-31 23:00:00,31.2,26.6,30.42,East,97,0.0,1.0,83,0.00,,,0.00,0,Wunderground v.1.15,2013-02-01 06:00:00,
2013-01-31 23:10:00,31.1,26.5,30.42,East,97,0.0,1.0,83,0.00,,,0.00,0,Wunderground v.1.15,2013-02-01 06:10:00,
2013-01-31 23:15:00,31.1,26.5,30.42,East,97,0.0,1.0,83,0.00,,,0.00,0,Wunderground v.1.15,2013-02-01 06:15:00,
2013-01-31 23:25:00,31.0,26.4,30.41,East,97,0.0,1.0,83,0.00,,,0.00,0,Wunderground v.1.15,2013-02-01 06:25:00,
2013-01-31 23:35:00,30.8,26.2,30.41,East,97,0.0,1.0,83,0.00,,,0.00,0,Wunderground v.1.15,2013-02-01 06:35:00,
2013-01-31 23:45:00,30.8,26.5,30.41,East,97,0.0,1.0,84,0.00,,,0.00,0,Wunderground v.1.15,2013-02-01 06:45:00,
2013-01-31 23:50:00,30.7,26.4,30.41,East,97,0.0,1.0,84,0.00,,,0.00,0,Wunderground v.1.15,2013-02-01 06:50:00,